createdAt,value
2023-05-12T00:01:44.613Z,6.78
2023-05-12T00:04:12.318Z,7.30
2023-05-12T00:06:39.993Z,7.00
2023-05-12T00:09:07.845Z,6.60
2023-05-12T00:11:35.415Z,7.72
2023-05-12T00:14:02.858Z,6.85
2023-05-12T00:16:30.405Z,7.30
2023-05-12T00:18:57.905Z,7.40
2023-05-12T00:21:25.433Z,7.60
2023-05-12T00:23:52.825Z,7.75
2023-05-12T00:26:21.072Z,7.63
2023-05-12T00:28:48.829Z,7.85
2023-05-12T00:31:16.352Z,7.95
2023-05-12T00:33:44.005Z,8.38
2023-05-12T00:36:11.540Z,8.20
2023-05-12T00:38:39.006Z,8.20
2023-05-12T00:41:06.579Z,8.23
2023-05-12T00:43:34.085Z,8.68
2023-05-12T00:46:03.279Z,9.00
2023-05-12T00:48:30.932Z,8.93
2023-05-12T00:51:00.193Z,9.00
2023-05-12T00:53:34.981Z,8.57
2023-05-12T00:56:08.932Z,9.25
2023-05-12T00:58:36.681Z,9.52
2023-05-12T01:01:04.178Z,9.15
2023-05-12T01:03:32.143Z,8.93
2023-05-12T01:06:24.627Z,8.57
2023-05-12T01:08:53.425Z,8.88
2023-05-12T01:11:21.837Z,9.20
2023-05-12T01:13:49.348Z,9.05
2023-05-12T01:16:18.412Z,9.15
2023-05-12T01:18:50.884Z,8.27
2023-05-12T01:21:19.025Z,8.90
2023-05-12T01:23:49.600Z,9.00
2023-05-12T01:26:17.171Z,8.70
2023-05-12T01:28:45.669Z,8.02
2023-05-12T01:31:13.521Z,8.43
2023-05-12T01:33:41.006Z,8.45
2023-05-12T01:36:08.746Z,8.30
2023-05-12T01:38:36.689Z,8.48
2023-05-12T01:41:04.829Z,8.35
2023-05-12T01:43:32.560Z,8.38
2023-05-12T01:46:00.238Z,8.95
2023-05-12T01:48:28.813Z,9.15
2023-05-12T01:51:01.210Z,9.32
2023-05-12T01:53:28.819Z,8.77
2023-05-12T01:55:56.259Z,9.10
2023-05-12T01:58:25.081Z,8.60
2023-05-12T02:00:52.589Z,8.60
2023-05-12T02:03:20.302Z,8.55
2023-05-12T02:05:47.864Z,8.68
2023-05-12T02:08:15.505Z,8.98
2023-05-12T02:10:42.941Z,9.65
2023-05-12T02:13:10.664Z,8.70
2023-05-12T02:15:38.542Z,9.20
2023-05-12T02:18:06.231Z,9.70
2023-05-12T02:20:33.649Z,9.40
2023-05-12T02:23:02.215Z,9.75
2023-05-12T02:25:31.106Z,9.02
2023-05-12T02:27:58.644Z,9.70
2023-05-12T02:30:26.018Z,9.23
2023-05-12T02:32:53.745Z,9.50
2023-05-12T02:35:21.646Z,9.43
2023-05-12T02:37:49.105Z,9.13
2023-05-12T02:40:17.028Z,9.70
2023-05-12T02:42:45.771Z,9.23
2023-05-12T02:45:13.472Z,10.02
2023-05-12T02:47:41.781Z,10.50
2023-05-12T02:50:10.443Z,10.07
2023-05-12T02:52:37.983Z,9.73
2023-05-12T02:55:05.740Z,10.50
2023-05-12T02:57:34.195Z,10.07
2023-05-12T03:00:04.217Z,11.48
2023-05-12T03:02:32.337Z,10.65
2023-05-12T03:04:59.727Z,10.60
2023-05-12T03:07:27.506Z,10.88
2023-05-12T03:09:55.872Z,10.80
2023-05-12T03:12:23.415Z,10.57
2023-05-12T03:14:51.914Z,10.35
2023-05-12T03:17:19.535Z,10.10
2023-05-12T03:19:47.412Z,10.18
2023-05-12T03:22:17.566Z,9.85
2023-05-12T03:24:45.074Z,10.02
2023-05-12T03:27:12.629Z,9.65
2023-05-12T03:29:40.245Z,10.20
2023-05-12T03:32:08.708Z,9.55
2023-05-12T03:34:36.251Z,9.18
2023-05-12T03:37:03.841Z,9.27
2023-05-12T03:39:31.569Z,9.23
2023-05-12T03:41:59.330Z,8.77
2023-05-12T03:44:26.795Z,9.45
2023-05-12T03:46:54.367Z,8.52
2023-05-12T03:49:21.891Z,9.23
2023-05-12T03:51:49.634Z,8.18
2023-05-12T03:54:17.132Z,8.85
2023-05-12T03:56:44.597Z,8.90
2023-05-12T03:59:12.152Z,8.68
2023-05-12T04:01:40.908Z,8.75
2023-05-12T04:04:08.506Z,8.77
2023-05-12T04:06:37.208Z,8.75
2023-05-12T04:09:05.035Z,8.93
2023-05-12T04:11:32.592Z,9.02
2023-05-12T04:14:01.110Z,8.57
2023-05-12T04:16:28.656Z,8.20
2023-05-12T04:18:57.555Z,8.55
2023-05-12T04:21:25.162Z,8.05
2023-05-12T04:23:53.014Z,7.68
2023-05-12T04:26:22.148Z,8.23
2023-05-12T04:28:49.678Z,8.38
2023-05-12T04:31:17.095Z,8.65
2023-05-12T04:33:47.545Z,7.63
2023-05-12T04:36:16.076Z,8.02
2023-05-12T04:38:43.542Z,7.78
2023-05-12T04:41:11.060Z,7.75
2023-05-12T04:46:09.098Z,7.50
2023-05-12T04:48:41.918Z,8.00
2023-05-12T04:51:09.527Z,8.10
2023-05-12T04:53:36.985Z,7.75
2023-05-12T04:56:04.626Z,7.75
2023-05-12T04:58:37.646Z,7.82
2023-05-12T05:01:05.427Z,7.53
2023-05-12T05:03:34.143Z,8.10
2023-05-12T05:06:01.871Z,7.93
2023-05-12T05:08:29.374Z,7.45
2023-05-12T05:10:57.485Z,7.35
2023-05-12T05:13:26.320Z,7.65
2023-05-12T05:15:54.870Z,8.30
2023-05-12T05:18:24.666Z,8.00
2023-05-12T05:20:58.369Z,8.13
2023-05-12T05:23:26.907Z,7.88
2023-05-12T05:25:54.851Z,7.80
2023-05-12T05:28:22.540Z,8.00
2023-05-12T05:30:50.501Z,8.10
2023-05-12T05:33:17.944Z,7.97
2023-05-12T05:35:46.697Z,7.97
2023-05-12T05:38:14.234Z,7.88
2023-05-12T05:40:52.975Z,8.18
2023-05-12T05:43:21.988Z,8.30
2023-05-12T05:45:50.089Z,7.55
2023-05-12T05:48:18.186Z,7.78
2023-05-12T05:50:46.761Z,8.10
2023-05-12T05:53:14.629Z,8.30
2023-05-12T05:55:42.132Z,7.68
2023-05-12T05:58:09.707Z,7.18
2023-05-12T06:00:37.293Z,7.97
2023-05-12T06:03:05.439Z,8.48
2023-05-12T06:05:32.926Z,7.55
2023-05-12T06:08:00.618Z,8.70
2023-05-12T06:10:28.131Z,8.40
2023-05-12T06:12:55.816Z,9.00
2023-05-12T06:15:23.311Z,8.40
2023-05-12T06:17:50.912Z,7.65
2023-05-12T06:20:18.639Z,7.43
2023-05-12T06:22:46.337Z,7.57
2023-05-12T06:25:13.999Z,6.57
2023-05-12T06:27:41.524Z,6.95
2023-05-12T06:30:09.708Z,6.90
2023-05-12T06:32:37.127Z,6.32
2023-05-12T06:35:06.850Z,7.03
2023-05-12T06:37:34.324Z,6.93
2023-05-12T06:40:01.954Z,6.68
2023-05-12T06:42:29.387Z,6.90
2023-05-12T06:44:57.200Z,7.55
2023-05-12T06:47:24.592Z,7.25
2023-05-12T06:49:52.241Z,7.60
2023-05-12T06:52:20.967Z,6.80
2023-05-12T06:54:48.665Z,6.82
2023-05-12T06:57:16.086Z,6.68
2023-05-12T06:59:43.581Z,6.78
2023-05-12T07:02:10.929Z,6.38
2023-05-12T07:04:38.442Z,6.35
2023-05-12T07:07:05.945Z,6.15
2023-05-12T07:09:33.297Z,6.40
2023-05-12T07:12:01.577Z,5.95
2023-05-12T07:14:29.056Z,5.57
2023-05-12T07:16:56.412Z,7.00
2023-05-12T07:19:23.780Z,5.85
2023-05-12T07:21:51.311Z,5.82
2023-05-12T07:24:18.723Z,6.07
2023-05-12T07:26:46.119Z,5.38
2023-05-12T07:29:13.928Z,5.60
2023-05-12T07:31:41.851Z,6.05
2023-05-12T07:34:09.251Z,5.90
2023-05-12T07:36:36.759Z,4.97
2023-05-12T07:39:04.488Z,5.68
2023-05-12T07:41:33.221Z,5.32
2023-05-12T07:44:02.818Z,5.35
2023-05-12T07:46:30.549Z,4.90
2023-05-12T07:48:58.208Z,5.03
2023-05-12T07:51:26.022Z,4.90
2023-05-12T07:53:55.319Z,4.93
2023-05-12T07:56:22.820Z,4.43
2023-05-12T07:58:50.290Z,4.50
2023-05-12T08:01:17.735Z,4.40
2023-05-12T08:03:45.329Z,4.05
2023-05-12T08:06:12.822Z,3.97
2023-05-12T08:08:40.264Z,3.88
2023-05-12T08:11:07.716Z,3.90
2023-05-12T08:13:35.190Z,4.45
2023-05-12T08:16:02.578Z,4.18
2023-05-12T08:18:30.091Z,4.35
2023-05-12T08:20:57.664Z,3.83
2023-05-12T08:23:25.049Z,4.05
2023-05-12T08:25:52.590Z,4.03
2023-05-12T08:28:19.942Z,3.65
2023-05-12T08:30:47.684Z,4.20
2023-05-12T08:33:15.163Z,4.43
2023-05-12T08:35:42.677Z,3.67
2023-05-12T08:38:10.150Z,3.72
2023-05-12T08:40:52.719Z,3.67
2023-05-12T08:43:23.111Z,4.18
2023-05-12T08:45:50.791Z,3.33
2023-05-12T08:48:19.082Z,3.50
2023-05-12T08:50:47.259Z,3.58
2023-05-12T08:53:16.727Z,3.88
2023-05-12T08:55:54.181Z,3.70
2023-05-12T08:58:40.305Z,3.50
2023-05-12T09:01:09.524Z,3.22
2023-05-12T09:03:38.020Z,3.28
2023-05-12T09:06:06.772Z,3.10
2023-05-12T09:08:35.276Z,3.47
2023-05-12T09:11:03.371Z,3.00
2023-05-12T09:13:38.344Z,2.97
2023-05-12T09:16:08.670Z,2.90
2023-05-12T09:19:04.593Z,2.90
2023-05-12T09:21:34.256Z,3.00
2023-05-12T09:24:06.591Z,3.58
2023-05-12T09:26:46.354Z,3.13
2023-05-12T09:29:23.989Z,2.97
2023-05-12T09:31:58.817Z,3.00
2023-05-12T09:34:38.514Z,2.80
2023-05-12T09:37:06.997Z,2.75
2023-05-12T09:39:34.706Z,2.78
2023-05-12T09:42:02.100Z,2.70
2023-05-12T09:44:29.690Z,2.85
2023-05-12T09:46:57.115Z,3.08
2023-05-12T09:49:27.126Z,2.78
2023-05-12T09:51:56.938Z,2.63
2023-05-12T09:54:31.075Z,2.40
2023-05-12T09:56:59.708Z,2.58
2023-05-12T09:59:38.832Z,2.45
2023-05-12T10:02:09.722Z,2.33
2023-05-12T10:04:43.357Z,2.45
2023-05-12T10:07:12.395Z,2.47
2023-05-12T10:09:42.284Z,2.80
2023-05-12T10:12:10.251Z,2.88
2023-05-12T10:14:37.952Z,3.15
2023-05-12T10:17:07.185Z,2.40
2023-05-12T10:19:36.262Z,2.58
2023-05-12T10:22:05.111Z,2.50
2023-05-12T10:24:32.801Z,2.55
2023-05-12T10:27:00.869Z,2.80
2023-05-12T10:29:30.334Z,2.50
2023-05-12T10:31:58.513Z,2.58
2023-05-12T10:34:31.046Z,2.55
2023-05-12T10:36:59.253Z,2.47
2023-05-12T10:39:30.220Z,2.60
2023-05-12T10:42:08.729Z,2.50
2023-05-12T10:44:36.860Z,2.53
2023-05-12T10:47:14.838Z,2.58
2023-05-12T10:49:43.227Z,2.63
2023-05-12T10:52:14.013Z,2.75
2023-05-12T10:54:44.600Z,2.55
2023-05-12T10:57:17.120Z,2.40
2023-05-12T10:59:53.501Z,2.40
2023-05-12T11:02:27.640Z,2.60
2023-05-12T11:05:04.268Z,2.70
2023-05-12T11:07:33.374Z,2.75
2023-05-12T11:10:02.028Z,2.70
2023-05-12T11:12:36.396Z,2.70
2023-05-12T11:15:04.853Z,2.28
2023-05-12T11:17:32.485Z,2.58
2023-05-12T11:20:01.377Z,2.35
2023-05-12T11:22:29.285Z,2.40
2023-05-12T11:24:56.842Z,2.78
2023-05-12T11:27:24.551Z,2.55
2023-05-12T11:30:02.002Z,2.35
2023-05-12T11:32:30.176Z,2.42
2023-05-12T11:35:08.266Z,2.72
2023-05-12T11:37:42.132Z,2.60
2023-05-12T11:40:16.416Z,2.70
2023-05-12T11:42:48.514Z,2.97
2023-05-12T11:45:26.195Z,3.50
2023-05-12T11:47:54.540Z,3.70
2023-05-12T11:50:23.129Z,3.30
2023-05-12T11:52:51.194Z,3.10
2023-05-12T11:55:23.594Z,3.10
2023-05-12T11:58:01.453Z,3.10
2023-05-12T12:00:30.181Z,3.10
2023-05-12T12:03:08.056Z,3.15
2023-05-12T12:05:36.018Z,2.70
2023-05-12T12:08:10.444Z,2.78
2023-05-12T12:10:38.329Z,2.75
2023-05-12T12:13:06.249Z,2.38
2023-05-12T12:15:33.890Z,2.60
2023-05-12T12:18:01.430Z,2.60
2023-05-12T12:20:29.045Z,3.10
2023-05-12T12:22:56.506Z,3.17
2023-05-12T12:25:24.118Z,2.90
2023-05-12T12:27:52.988Z,2.70
2023-05-12T12:30:20.482Z,3.08
2023-05-12T12:32:48.023Z,3.42
2023-05-12T12:35:15.688Z,3.45
2023-05-12T12:37:43.157Z,3.33
2023-05-12T12:40:11.742Z,3.90
2023-05-12T12:42:41.336Z,3.53
2023-05-12T12:45:10.074Z,3.38
2023-05-12T12:47:39.098Z,3.08
2023-05-12T12:50:07.805Z,3.35
2023-05-12T12:52:35.251Z,2.90
2023-05-12T12:55:04.163Z,3.30
2023-05-12T12:57:31.682Z,3.33
2023-05-12T12:59:59.188Z,3.33
2023-05-12T13:02:27.112Z,2.90
2023-05-12T13:04:55.002Z,3.10
2023-05-12T13:07:22.347Z,2.90
2023-05-12T13:09:49.890Z,3.13
2023-05-12T13:12:17.277Z,3.30
2023-05-12T13:14:44.832Z,3.25
2023-05-12T13:17:12.234Z,3.35
2023-05-12T13:19:39.736Z,3.63
2023-05-12T13:22:07.619Z,3.08
2023-05-12T13:24:35.206Z,3.03
2023-05-12T13:27:03.627Z,3.42
2023-05-12T13:29:30.952Z,3.10
2023-05-12T13:31:58.460Z,3.30
2023-05-12T13:34:26.071Z,3.42
2023-05-12T13:36:53.610Z,2.75
2023-05-12T13:39:21.174Z,2.67
2023-05-12T13:41:48.797Z,2.85
2023-05-12T13:44:16.242Z,2.53
2023-05-12T13:46:43.860Z,2.67
2023-05-12T13:49:11.214Z,2.70
2023-05-12T13:51:38.921Z,2.72
2023-05-12T13:54:06.507Z,3.08
2023-05-12T13:56:33.953Z,3.00
2023-05-12T13:59:01.337Z,3.05
2023-05-12T14:01:28.986Z,3.15
2023-05-12T14:03:56.335Z,3.03
2023-05-12T14:06:23.883Z,2.65
2023-05-12T14:08:51.374Z,2.55
2023-05-12T14:11:18.915Z,2.97
2023-05-12T14:13:46.973Z,2.80
2023-05-12T14:16:14.885Z,3.10
2023-05-12T14:18:43.700Z,2.88
2023-05-12T14:21:11.542Z,2.53
2023-05-12T14:23:38.881Z,2.80
2023-05-12T14:26:06.551Z,2.70
2023-05-12T14:28:34.569Z,2.50
2023-05-12T14:31:03.749Z,2.92
2023-05-12T14:33:31.799Z,2.50
2023-05-12T14:36:07.347Z,2.83
2023-05-12T14:38:36.047Z,2.70
2023-05-12T14:41:04.091Z,2.65
2023-05-12T14:43:31.677Z,2.45
2023-05-12T14:45:59.076Z,2.63
2023-05-12T14:48:27.256Z,2.38
2023-05-12T14:50:55.399Z,2.60
2023-05-12T14:53:22.948Z,2.65
2023-05-12T14:55:50.967Z,2.30
2023-05-12T14:58:18.953Z,2.53
2023-05-12T15:00:47.575Z,2.47
2023-05-12T15:03:15.182Z,2.38
2023-05-12T15:06:01.781Z,2.60
2023-05-12T15:08:30.497Z,2.70
2023-05-12T15:10:58.054Z,2.78
2023-05-12T15:13:25.715Z,2.47
2023-05-12T15:15:55.310Z,2.85
2023-05-12T15:18:24.293Z,2.63
2023-05-12T15:20:52.385Z,2.70
2023-05-12T15:23:20.072Z,2.70
2023-05-12T15:25:47.821Z,3.03
2023-05-12T15:28:15.308Z,3.00
2023-05-12T15:30:42.758Z,2.80
2023-05-12T15:33:10.510Z,2.90
2023-05-12T15:35:40.778Z,3.00
2023-05-12T15:38:08.440Z,3.00
2023-05-12T15:40:35.928Z,2.70
2023-05-12T15:43:03.495Z,2.90
2023-05-12T15:45:31.578Z,2.90
2023-05-12T15:47:59.281Z,3.10
2023-05-12T15:50:26.889Z,2.85
2023-05-12T15:52:54.503Z,2.92
2023-05-12T15:55:22.298Z,3.03
2023-05-12T15:57:50.292Z,2.95
2023-05-12T16:00:18.417Z,3.10
2023-05-12T16:02:45.908Z,3.00
2023-05-12T16:05:13.374Z,3.03
2023-05-12T16:07:40.984Z,2.78
2023-05-12T16:10:08.565Z,3.03
2023-05-12T16:12:36.014Z,2.92
2023-05-12T16:15:04.975Z,3.00
2023-05-12T16:17:32.543Z,2.72
2023-05-12T16:20:00.224Z,2.92
2023-05-12T16:22:28.036Z,3.10
2023-05-12T16:24:56.620Z,2.78
2023-05-12T16:27:23.979Z,2.63
2023-05-12T16:29:53.557Z,2.97
2023-05-12T16:32:21.115Z,2.78
2023-05-12T16:34:48.714Z,3.05
2023-05-12T16:37:16.056Z,2.75
2023-05-12T16:39:43.511Z,2.70
2023-05-12T16:42:10.980Z,2.78
2023-05-12T16:44:38.500Z,2.80
2023-05-12T16:47:06.453Z,2.80
2023-05-12T16:49:34.017Z,2.95
2023-05-12T16:52:01.435Z,2.75
2023-05-12T16:54:29.056Z,2.90
2023-05-12T16:56:56.572Z,2.65
2023-05-12T16:59:23.955Z,2.80
2023-05-12T17:01:51.696Z,2.90
2023-05-12T17:04:19.178Z,3.13
2023-05-12T17:06:46.810Z,2.78
2023-05-12T17:09:15.076Z,2.90
2023-05-12T17:11:42.459Z,3.10
2023-05-12T17:14:10.101Z,3.33
2023-05-12T17:16:37.961Z,3.00
2023-05-12T17:21:36.132Z,3.03
2023-05-12T17:24:03.755Z,3.05
2023-05-12T17:26:31.152Z,3.10
2023-05-12T17:28:58.525Z,3.15
2023-05-12T17:31:26.269Z,2.92
2023-05-12T17:33:53.969Z,3.20
2023-05-12T17:36:21.391Z,3.50
2023-05-12T17:38:50.766Z,3.22
2023-05-12T17:41:18.431Z,3.63
2023-05-12T17:43:46.034Z,3.40
2023-05-12T17:46:13.742Z,3.63
2023-05-12T17:48:41.784Z,3.45
2023-05-12T17:51:09.332Z,3.50
2023-05-12T17:53:37.039Z,3.17
2023-05-12T17:56:04.581Z,3.40
2023-05-12T17:58:32.152Z,3.45
2023-05-12T18:00:59.678Z,3.30
2023-05-12T18:03:27.345Z,3.60
2023-05-12T18:05:54.964Z,3.33
2023-05-12T18:08:22.466Z,3.22
2023-05-12T18:10:50.118Z,3.70
2023-05-12T18:13:17.685Z,3.47
2023-05-12T18:15:45.273Z,3.67
2023-05-12T18:18:14.534Z,3.30
2023-05-12T18:20:42.476Z,3.60
2023-05-12T18:23:10.018Z,4.53
2023-05-12T18:25:37.613Z,4.00
2023-05-12T18:28:06.590Z,3.70
2023-05-12T18:30:34.328Z,4.05
2023-05-12T18:33:01.897Z,3.85
2023-05-12T18:35:29.326Z,4.43
2023-05-12T18:37:56.758Z,4.10
2023-05-12T18:40:24.138Z,3.85
2023-05-12T18:42:51.613Z,4.03
2023-05-12T18:45:19.647Z,4.03
2023-05-12T18:47:47.289Z,3.67
2023-05-12T18:50:14.977Z,3.92
2023-05-12T18:52:43.902Z,3.92
2023-05-12T18:55:11.424Z,3.83
2023-05-12T18:57:38.949Z,4.25
2023-05-12T19:00:07.167Z,4.00
2023-05-12T19:02:34.836Z,4.13
2023-05-12T19:05:02.635Z,4.00
2023-05-12T19:07:30.134Z,4.35
2023-05-12T19:09:57.649Z,4.10
2023-05-12T19:12:25.287Z,4.10
2023-05-12T19:14:52.722Z,4.15
2023-05-12T19:17:20.290Z,4.30
2023-05-12T19:19:49.279Z,4.47
2023-05-12T19:22:16.987Z,4.50
2023-05-12T19:24:44.503Z,4.60
2023-05-12T19:27:11.999Z,4.43
2023-05-12T19:29:39.523Z,4.63
2023-05-12T19:32:07.511Z,4.07
2023-05-12T19:34:35.183Z,4.45
2023-05-12T19:37:03.004Z,4.05
2023-05-12T19:39:30.570Z,4.50
2023-05-12T19:41:58.071Z,4.10
2023-05-12T19:44:25.493Z,4.40
2023-05-12T19:46:53.254Z,4.45
2023-05-12T19:49:20.881Z,4.38
2023-05-12T19:51:48.995Z,4.70
2023-05-12T19:54:17.055Z,4.60
2023-05-12T19:56:44.822Z,4.50
2023-05-12T19:59:12.323Z,4.65
2023-05-12T20:01:41.155Z,4.20
2023-05-12T20:04:08.942Z,4.30
2023-05-12T20:06:36.428Z,4.35
2023-05-12T20:09:04.492Z,4.70
2023-05-12T20:11:32.136Z,4.80
2023-05-12T20:13:59.520Z,4.90
2023-05-12T20:16:27.218Z,4.60
2023-05-12T20:18:55.106Z,4.53
2023-05-12T20:21:22.539Z,4.72
2023-05-12T20:23:50.200Z,4.60
2023-05-12T20:26:17.743Z,4.72
2023-05-12T20:28:45.676Z,4.85
2023-05-12T20:31:13.474Z,5.00
2023-05-12T20:33:41.300Z,4.22
2023-05-12T20:36:09.012Z,4.95
2023-05-12T20:38:36.625Z,4.65
2023-05-12T20:41:05.346Z,4.72
2023-05-12T20:43:33.162Z,5.03
2023-05-12T20:46:00.940Z,4.97
2023-05-12T20:48:28.490Z,4.70
2023-05-12T20:50:56.600Z,4.72
2023-05-12T20:53:24.244Z,5.28
2023-05-12T20:55:52.496Z,4.85
2023-05-12T20:58:20.078Z,5.10
2023-05-12T21:00:47.469Z,5.10
2023-05-12T21:03:17.254Z,4.95
2023-05-12T21:05:48.180Z,5.50
2023-05-12T21:08:15.939Z,5.05
2023-05-12T21:10:43.426Z,5.20
2023-05-12T21:13:11.401Z,5.00
2023-05-12T21:15:38.857Z,5.40
2023-05-12T21:18:06.576Z,4.68
2023-05-12T21:20:34.301Z,4.93
2023-05-12T21:23:01.977Z,5.15
2023-05-12T21:25:29.478Z,5.00
2023-05-12T21:27:57.059Z,5.60
2023-05-12T21:30:24.461Z,5.45
2023-05-12T21:32:52.101Z,5.25
2023-05-12T21:35:19.729Z,5.72
2023-05-12T21:37:49.599Z,5.43
2023-05-12T21:40:17.239Z,5.30
2023-05-12T21:42:44.599Z,5.70
2023-05-12T21:45:13.037Z,5.43
2023-05-12T21:47:40.638Z,5.72
2023-05-12T21:50:08.273Z,5.63
2023-05-12T21:52:35.762Z,5.55
2023-05-12T21:55:04.956Z,5.45
2023-05-12T21:57:32.431Z,5.68
2023-05-12T22:00:03.976Z,5.82
2023-05-12T22:02:37.238Z,5.60
2023-05-12T22:05:05.610Z,5.63
2023-05-12T22:07:33.073Z,5.68
2023-05-12T22:10:01.290Z,5.60
2023-05-12T22:12:28.801Z,5.85
2023-05-12T22:14:56.300Z,6.03
2023-05-12T22:17:24.086Z,6.32
2023-05-12T22:19:51.686Z,6.00
2023-05-12T22:22:19.193Z,6.53
2023-05-12T22:24:46.605Z,6.40
2023-05-12T22:27:14.097Z,6.60
2023-05-12T22:29:41.547Z,6.72
2023-05-12T22:32:08.887Z,6.00
2023-05-12T22:34:36.256Z,6.50
2023-05-12T22:37:04.130Z,6.15
2023-05-12T22:39:31.506Z,6.50
2023-05-12T22:41:59.001Z,6.75
2023-05-12T22:44:26.414Z,6.63
2023-05-12T22:46:53.893Z,6.68
2023-05-12T22:49:21.370Z,6.70
2023-05-12T22:51:48.866Z,6.90
2023-05-12T22:54:16.504Z,7.07
2023-05-12T22:56:44.889Z,6.57
2023-05-12T22:59:12.305Z,6.82
2023-05-12T23:01:39.873Z,6.82
2023-05-12T23:04:08.118Z,6.85
2023-05-12T23:06:35.838Z,7.03
2023-05-12T23:09:03.150Z,7.32
2023-05-12T23:11:30.550Z,6.63
2023-05-12T23:13:58.287Z,6.70
2023-05-12T23:16:26.021Z,6.85
2023-05-12T23:18:53.465Z,7.05
2023-05-12T23:21:20.869Z,7.10
2023-05-12T23:23:48.270Z,6.82
2023-05-12T23:26:15.802Z,6.88
2023-05-12T23:28:43.340Z,6.32
2023-05-12T23:31:10.707Z,6.80
2023-05-12T23:33:38.521Z,6.32
2023-05-12T23:36:06.882Z,6.65
2023-05-12T23:38:34.348Z,6.63
2023-05-12T23:41:01.699Z,6.57
2023-05-12T23:43:29.208Z,6.18
2023-05-12T23:45:56.727Z,6.97
2023-05-12T23:48:24.708Z,7.38
2023-05-12T23:50:52.208Z,7.40
2023-05-12T23:53:19.604Z,7.05
2023-05-12T23:55:46.925Z,6.82
2023-05-12T23:58:14.394Z,7.18
